Time;durP1;ratioP1;P1;durP2;ratioP2;P2;SDS_P1;SDS_P2;PMS_P1;PMS_P2;Temp;Humidity;BMP_temperature;BMP_pressure;BME280_temperature;BME280_humidity;BME280_pressure;Samples;Min_cycle;Max_cycle;Signal;HPM_P1;HPM_P2
2023/07/23 00:01:03;;;;;;;;;;;;;;;;;;5014035;28;19940;-68
2023/07/23 00:03:29;;;;;;;;;;;;;;;;;;5017471;28;19921;-67
2023/07/23 00:05:54;;;;;;;;;;;;;;;;;;5023769;28;19963;-69
2023/07/23 00:08:19;;;;;;;;;;;;;;;;;;5013549;28;19928;-68
2023/07/23 00:10:45;;;;;;;;;;;;;;;;;;5015415;28;19917;-73
2023/07/23 00:13:11;;;;;;;;;;;;;;;;;;5004086;28;19998;-65
2023/07/23 00:15:39;;;;;;;;;;;;;;;;;;5006152;28;20626;-69
2023/07/23 00:18:04;;;;;;;;;;;;;;;;;;5005310;28;19921;-70
2023/07/23 00:20:32;;;;;;;;;;;;;;;;;;5010195;28;19947;-71
2023/07/23 00:23:00;;;;;;;;;;;;;;;;;;5023027;28;20353;-72
2023/07/23 00:25:26;;;;;;;;;;;;;;;;;;5011462;28;19951;-68
2023/07/23 00:27:53;;;;;;;;;;;;;;;;;;4996714;28;20911;-71
2023/07/23 00:30:21;;;;;;;;;;;;;;;;;;5013711;28;20002;-68
2023/07/23 00:32:49;;;;;;;;;;;;;;;;;;5013016;28;19920;-71
2023/07/23 00:35:19;;;;;;;;;;;;;;;;;;4993342;28;19927;-69
2023/07/23 00:37:44;;;;;;;;;;;;;;;;;;4996529;28;19967;-74
2023/07/23 00:40:10;;;;;;;;;;;;;;;;;;4996208;28;19956;-72
2023/07/23 00:42:35;;;;;;;;;;;;;;;;;;4994901;28;19967;-69
2023/07/23 00:45:03;;;;;;;;;;;;;;;;;;5009168;28;19924;-69
2023/07/23 00:47:29;;;;;;;;;;;;;;;;;;5009082;28;20405;-72
2023/07/23 00:49:57;;;;;;;;;;;;;;;;;;5010132;28;19921;-72
2023/07/23 00:52:23;;;;;;;;;;;;;;;;;;5011012;28;20465;-71
2023/07/23 00:54:48;;;;;;;;;;;;;;;;;;5002705;28;19921;-74
2023/07/23 00:57:16;;;;;;;;;;;;;;;;;;5022324;28;19917;-70
2023/07/23 00:59:41;;;;;;;;;;;;;;;;;;4994761;28;19917;-71
2023/07/23 01:02:07;;;;;;;;;;;;;;;;;;4992942;28;20459;-70
2023/07/23 01:07:48;;;;;;;;;;;;;;;;;;5023088;28;19932;-70
2023/07/23 01:10:16;;;;;;;;;;;;;;;;;;5008267;28;19916;-70
2023/07/23 01:12:44;;;;;;;;;;;;;;;;;;5011128;28;19943;-70
2023/07/23 01:15:09;;;;;;;;;;;;;;;;;;4998261;28;19920;-71
2023/07/23 01:17:37;;;;;;;;;;;;;;;;;;5011176;28;19975;-68
2023/07/23 01:20:06;;;;;;;;;;;;;;;;;;5016559;28;19921;-69
2023/07/23 01:22:31;;;;;;;;;;;;;;;;;;5013792;28;19978;-74
2023/07/23 01:24:56;;;;;;;;;;;;;;;;;;5014074;28;20011;-75
2023/07/23 01:27:22;;;;;;;;;;;;;;;;;;4997124;28;19947;-74
2023/07/23 01:29:47;;;;;;;;;;;;;;;;;;5009394;28;20003;-70
2023/07/23 01:32:12;;;;;;;;;;;;;;;;;;4998819;28;19932;-74
2023/07/23 01:34:38;;;;;;;;;;;;;;;;;;5010746;28;19921;-74
2023/07/23 01:37:03;;;;;;;;;;;;;;;;;;5015095;28;20011;-72
2023/07/23 01:39:31;;;;;;;;;;;;;;;;;;5017347;28;19946;-71
2023/07/23 01:41:57;;;;;;;;;;;;;;;;;;5014784;28;19921;-73
2023/07/23 01:44:25;;;;;;;;;;;;;;;;;;4999726;28;19935;-73
2023/07/23 01:46:51;;;;;;;;;;;;;;;;;;5025669;28;19936;-72
2023/07/23 01:49:16;;;;;;;;;;;;;;;;;;5008656;28;19938;-69
2023/07/23 01:51:42;;;;;;;;;;;;;;;;;;5019906;28;19916;-72
2023/07/23 01:54:07;;;;;;;;;;;;;;;;;;5016442;28;19924;-73
2023/07/23 01:56:32;;;;;;;;;;;;;;;;;;5009130;28;20019;-72
2023/07/23 01:58:58;;;;;;;;;;;;;;;;;;5000068;28;20518;-72
2023/07/23 02:01:25;;;;;;;;;;;;;;;;;;5007464;28;19937;-71
2023/07/23 02:03:51;;;;;;;;;;;;;;;;;;5001616;28;19921;-69
2023/07/23 02:06:19;;;;;;;;;;;;;;;;;;4999501;28;19994;-71
2023/07/23 02:08:44;;;;;;;;;;;;;;;;;;4998358;28;20012;-70
2023/07/23 02:11:10;;;;;;;;;;;;;;;;;;4996959;28;21075;-70
2023/07/23 02:13:35;;;;;;;;;;;;;;;;;;5026910;28;20681;-71
2023/07/23 02:16:00;;;;;;;;;;;;;;;;;;5026972;28;20462;-70
2023/07/23 02:18:28;;;;;;;;;;;;;;;;;;5014589;28;19927;-75
2023/07/23 02:20:53;;;;;;;;;;;;;;;;;;5026316;28;19925;-70
2023/07/23 02:23:21;;;;;;;;;;;;;;;;;;5024658;28;19995;-72
2023/07/23 02:25:47;;;;;;;;;;;;;;;;;;5013503;28;19920;-76
2023/07/23 02:28:13;;;;;;;;;;;;;;;;;;5016315;28;20348;-73
2023/07/23 02:30:38;;;;;;;;;;;;;;;;;;5016451;28;20325;-73
2023/07/23 02:33:03;;;;;;;;;;;;;;;;;;4999457;28;19922;-74
2023/07/23 02:35:29;;;;;;;;;;;;;;;;;;4998788;28;20443;-68
2023/07/23 02:37:56;;;;;;;;;;;;;;;;;;5014122;28;19917;-72
2023/07/23 02:40:22;;;;;;;;;;;;;;;;;;5006999;28;19944;-72
2023/07/23 02:42:47;;;;;;;;;;;;;;;;;;5024529;28;19966;-72
2023/07/23 02:45:12;;;;;;;;;;;;;;;;;;4998547;28;19960;-72
2023/07/23 02:47:38;;;;;;;;;;;;;;;;;;5010784;28;20351;-72
2023/07/23 02:50:03;;;;;;;;;;;;;;;;;;5006808;28;19920;-74
2023/07/23 02:52:28;;;;;;;;;;;;;;;;;;5007497;28;20600;-71
2023/07/23 02:54:54;;;;;;;;;;;;;;;;;;4995084;28;19920;-74
2023/07/23 02:57:21;;;;;;;;;;;;;;;;;;5010146;28;20043;-74
2023/07/23 02:59:49;;;;;;;;;;;;;;;;;;5024302;28;19925;-73
2023/07/23 03:02:19;;;;;;;;;;;;;;;;;;4997790;28;20003;-74
2023/07/23 03:04:44;;;;;;;;;;;;;;;;;;5008183;28;19988;-73
2023/07/23 03:07:10;;;;;;;;;;;;;;;;;;5022645;28;19936;-72
2023/07/23 03:09:35;;;;;;;;;;;;;;;;;;5013106;28;19924;-78
2023/07/23 03:12:01;;;;;;;;;;;;;;;;;;4996261;28;20358;-74
2023/07/23 03:14:27;;;;;;;;;;;;;;;;;;5024550;28;20379;-72
2023/07/23 03:16:52;;;;;;;;;;;;;;;;;;5010755;28;20713;-75
2023/07/23 03:19:17;;;;;;;;;;;;;;;;;;5009510;28;20321;-73
2023/07/23 03:21:43;;;;;;;;;;;;;;;;;;5022535;28;19925;-72
2023/07/23 03:24:08;;;;;;;;;;;;;;;;;;5017444;28;19931;-77
2023/07/23 03:26:36;;;;;;;;;;;;;;;;;;5027775;28;19943;-80
2023/07/23 03:29:04;;;;;;;;;;;;;;;;;;5013400;28;20640;-75
2023/07/23 03:31:29;;;;;;;;;;;;;;;;;;5008329;28;19916;-76
2023/07/23 03:33:55;;;;;;;;;;;;;;;;;;4996009;28;19924;-71
2023/07/23 03:36:23;;;;;;;;;;;;;;;;;;5013710;28;19925;-71
2023/07/23 03:38:50;;;;;;;;;;;;;;;;;;5006956;28;20353;-71
2023/07/23 03:41:15;;;;;;;;;;;;;;;;;;5001845;28;19921;-73
2023/07/23 03:43:41;;;;;;;;;;;;;;;;;;5006029;28;20500;-73
2023/07/23 03:46:06;;;;;;;;;;;;;;;;;;5006257;28;19932;-74
2023/07/23 03:48:31;;;;;;;;;;;;;;;;;;5026150;28;21254;-73
2023/07/23 03:50:57;;;;;;;;;;;;;;;;;;4998486;28;20384;-74
2023/07/23 03:53:22;;;;;;;;;;;;;;;;;;5015596;28;19919;-78
2023/07/23 03:55:47;;;;;;;;;;;;;;;;;;5018033;28;19917;-74
2023/07/23 03:58:13;;;;;;;;;;;;;;;;;;5013238;28;20379;-74
2023/07/23 04:00:40;;;;;;;;;;;;;;;;;;5015794;28;19916;-74
2023/07/23 04:03:05;;;;;;;;;;;;;;;;;;5014901;28;19964;-76
2023/07/23 04:05:31;;;;;;;;;;;;;;;;;;4999952;28;20035;-74
2023/07/23 04:07:56;;;;;;;;;;;;;;;;;;5009641;28;20007;-75
2023/07/23 04:10:21;;;;;;;;;;;;;;;;;;5016617;28;19921;-77
2023/07/23 04:12:47;;;;;;;;;;;;;;;;;;5002630;28;19947;-74
2023/07/23 04:15:12;;;;;;;;;;;;;;;;;;5016698;28;19920;-77
2023/07/23 04:17:37;;;;;;;;;;;;;;;;;;5000699;28;20034;-75
2023/07/23 04:20:03;;;;;;;;;;;;;;;;;;5022419;28;19916;-77
2023/07/23 04:22:28;;;;;;;;;;;;;;;;;;5017220;28;19940;-79
2023/07/23 04:24:53;;;;;;;;;;;;;;;;;;5013384;28;19924;-75
2023/07/23 04:27:19;;;;;;;;;;;;;;;;;;5030246;28;19939;-75
2023/07/23 04:29:44;;;;;;;;;;;;;;;;;;5018601;28;19920;-73
2023/07/23 04:32:09;;;;;;;;;;;;;;;;;;5014499;28;19921;-74
2023/07/23 04:34:35;;;;;;;;;;;;;;;;;;5015063;28;19920;-78
2023/07/23 04:37:00;;;;;;;;;;;;;;;;;;5015864;28;19917;-75
2023/07/23 04:39:25;;;;;;;;;;;;;;;;;;5026468;28;19992;-74
2023/07/23 04:41:51;;;;;;;;;;;;;;;;;;5000176;28;19999;-76
2023/07/23 04:44:16;;;;;;;;;;;;;;;;;;5015852;28;20427;-76
2023/07/23 04:46:41;;;;;;;;;;;;;;;;;;5000670;28;21921;-77
2023/07/23 04:49:06;;;;;;;;;;;;;;;;;;5016520;28;19917;-77
2023/07/23 04:51:32;;;;;;;;;;;;;;;;;;5012945;28;19924;-74
2023/07/23 04:53:57;;;;;;;;;;;;;;;;;;4999143;28;19932;-76
2023/07/23 04:56:23;;;;;;;;;;;;;;;;;;5015500;28;19928;-73
2023/07/23 04:58:48;;;;;;;;;;;;;;;;;;5002876;28;19920;-73
2023/07/23 05:01:13;;;;;;;;;;;;;;;;;;5017701;28;19917;-75
2023/07/23 05:03:41;;;;;;;;;;;;;;;;;;5012230;28;21097;-76
2023/07/23 05:06:06;;;;;;;;;;;;;;;;;;5025325;28;19924;-80
2023/07/23 05:08:34;;;;;;;;;;;;;;;;;;5033005;28;20415;-76
2023/07/23 05:11:00;;;;;;;;;;;;;;;;;;5010488;28;20050;-77
2023/07/23 05:13:25;;;;;;;;;;;;;;;;;;5032835;28;19913;-76
2023/07/23 05:15:50;;;;;;;;;;;;;;;;;;5026466;28;19955;-77
2023/07/23 05:18:16;;;;;;;;;;;;;;;;;;5013330;28;20443;-71
2023/07/23 05:20:41;;;;;;;;;;;;;;;;;;5040847;28;19920;-75
2023/07/23 05:23:06;;;;;;;;;;;;;;;;;;5022919;28;19928;-74
2023/07/23 05:25:32;;;;;;;;;;;;;;;;;;5032862;28;19921;-75
2023/07/23 05:27:57;;;;;;;;;;;;;;;;;;5027044;28;19921;-75
2023/07/23 05:30:23;;;;;;;;;;;;;;;;;;5002706;28;19923;-75
2023/07/23 05:32:48;;;;;;;;;;;;;;;;;;5015228;28;20004;-74
2023/07/23 05:35:14;;;;;;;;;;;;;;;;;;5002280;28;19948;-75
2023/07/23 05:37:39;;;;;;;;;;;;;;;;;;5032536;28;20020;-77
2023/07/23 05:40:04;;;;;;;;;;;;;;;;;;5030624;28;19920;-76
2023/07/23 05:42:30;;;;;;;;;;;;;;;;;;5018286;28;20322;-79
2023/07/23 05:44:55;;;;;;;;;;;;;;;;;;5022460;28;19917;-81
2023/07/23 05:47:20;;;;;;;;;;;;;;;;;;5036286;28;19941;-79
2023/07/23 05:49:46;;;;;;;;;;;;;;;;;;5012486;28;19971;-79
2023/07/23 05:52:11;;;;;;;;;;;;;;;;;;5006046;28;19924;-70
2023/07/23 05:54:36;;;;;;;;;;;;;;;;;;5017624;28;19971;-76
2023/07/23 05:57:01;;;;;;;;;;;;;;;;;;5014294;28;19951;-75
2023/07/23 05:59:27;;;;;;;;;;;;;;;;;;4999966;28;19916;-74
2023/07/23 06:01:52;;;;;;;;;;;;;;;;;;5032240;28;19917;-73
2023/07/23 06:04:17;;;;;;;;;;;;;;;;;;5014422;28;20880;-75
2023/07/23 06:06:43;;;;;;;;;;;;;;;;;;5001441;28;19981;-74
2023/07/23 06:09:08;;;;;;;;;;;;;;;;;;5017646;28;19920;-76
2023/07/23 06:11:33;;;;;;;;;;;;;;;;;;4998953;28;19936;-76
2023/07/23 06:13:59;;;;;;;;;;;;;;;;;;5019607;28;20453;-75
2023/07/23 06:16:24;;;;;;;;;;;;;;;;;;5020094;28;19921;-72
2023/07/23 06:18:49;;;;;;;;;;;;;;;;;;5028881;28;20660;-73
2023/07/23 06:21:15;;;;;;;;;;;;;;;;;;5029132;28;20478;-78
2023/07/23 06:23:40;;;;;;;;;;;;;;;;;;5054860;28;19925;-77
2023/07/23 06:26:05;;;;;;;;;;;;;;;;;;5043496;28;19917;-73
2023/07/23 06:31:46;;;;;;;;;;;;;;;;;;5056306;28;19932;-76
2023/07/23 06:34:12;;;;;;;;;;;;;;;;;;5044531;28;20367;-72
2023/07/23 06:36:37;;;;;;;;;;;;;;;;;;5050792;28;20276;-75
2023/07/23 06:39:03;;;;;;;;;;;;;;;;;;5039235;28;19916;-79
2023/07/23 06:41:28;;;;;;;;;;;;;;;;;;5024109;28;20015;-77
2023/07/23 06:43:53;;;;;;;;;;;;;;;;;;5033705;28;19916;-76
2023/07/23 06:46:21;;;;;;;;;;;;;;;;;;5053897;28;19920;-74
2023/07/23 06:48:49;;;;;;;;;;;;;;;;;;5025761;28;20006;-75
2023/07/23 06:51:15;;;;;;;;;;;;;;;;;;5024322;28;19999;-76
2023/07/23 06:53:40;;;;;;;;;;;;;;;;;;5020518;28;19932;-78
2023/07/23 06:56:08;;;;;;;;;;;;;;;;;;5038232;28;19921;-78
2023/07/23 06:58:33;;;;;;;;;;;;;;;;;;5025080;28;19924;-77
2023/07/23 07:00:58;;;;;;;;;;;;;;;;;;5027043;28;19934;-80
2023/07/23 07:03:24;;;;;;;;;;;;;;;;;;5049933;28;19917;-77
2023/07/23 07:05:50;;;;;;;;;;;;;;;;;;5054441;28;19920;-79
2023/07/23 07:08:15;;;;;;;;;;;;;;;;;;5038983;28;19912;-77
2023/07/23 07:10:40;;;;;;;;;;;;;;;;;;5020873;28;19920;-79
2023/07/23 07:13:06;;;;;;;;;;;;;;;;;;5030248;28;20024;-74
2023/07/23 07:15:31;;;;;;;;;;;;;;;;;;5046670;28;19916;-75
2023/07/23 07:17:56;;;;;;;;;;;;;;;;;;5044502;28;21890;-76
2023/07/23 07:20:22;;;;;;;;;;;;;;;;;;5025376;28;20810;-75
2023/07/23 07:22:47;;;;;;;;;;;;;;;;;;5012047;28;19920;-77
2023/07/23 07:25:12;;;;;;;;;;;;;;;;;;5022821;28;20016;-74
2023/07/23 07:27:38;;;;;;;;;;;;;;;;;;5024344;28;20990;-74
2023/07/23 07:30:03;;;;;;;;;;;;;;;;;;5016096;28;19974;-71
2023/07/23 07:32:29;;;;;;;;;;;;;;;;;;4995797;28;19966;-76
2023/07/23 07:34:54;;;;;;;;;;;;;;;;;;5023202;28;19920;-76
2023/07/23 07:37:19;;;;;;;;;;;;;;;;;;5018784;28;19927;-76
2023/07/23 07:39:45;;;;;;;;;;;;;;;;;;5015972;28;19920;-75
2023/07/23 07:42:10;;;;;;;;;;;;;;;;;;5013553;28;19943;-75
2023/07/23 07:44:35;;;;;;;;;;;;;;;;;;4996003;28;20000;-75
2023/07/23 07:50:20;;;;;;;;;;;;;;;;;;5026962;28;19931;-75
2023/07/23 07:52:45;;;;;;;;;;;;;;;;;;5015004;28;19921;-79
2023/07/23 07:55:10;;;;;;;;;;;;;;;;;;4999834;28;20376;-75
2023/07/23 07:57:36;;;;;;;;;;;;;;;;;;5014457;28;20030;-75
2023/07/23 08:00:01;;;;;;;;;;;;;;;;;;5021896;28;20957;-72
2023/07/23 08:02:26;;;;;;;;;;;;;;;;;;5015072;28;19936;-74
2023/07/23 08:04:52;;;;;;;;;;;;;;;;;;5024890;28;20050;-76
2023/07/23 08:07:19;;;;;;;;;;;;;;;;;;4999131;28;19921;-74
2023/07/23 08:09:44;;;;;;;;;;;;;;;;;;5013942;28;19921;-79
2023/07/23 08:12:10;;;;;;;;;;;;;;;;;;5016223;28;19921;-75
2023/07/23 08:14:35;;;;;;;;;;;;;;;;;;5008242;28;20292;-77
2023/07/23 08:17:00;;;;;;;;;;;;;;;;;;5026605;28;19917;-68
2023/07/23 08:19:25;;;;;;;;;;;;;;;;;;5022303;28;19928;-74
2023/07/23 08:21:51;;;;;;;;;;;;;;;;;;5008222;28;19928;-73
2023/07/23 08:24:16;;;;;;;;;;;;;;;;;;4997275;28;19937;-75
2023/07/23 08:26:41;;;;;;;;;;;;;;;;;;5010135;28;19925;-77
2023/07/23 08:29:07;;;;;;;;;;;;;;;;;;5014579;28;19928;-78
2023/07/23 08:34:22;;;;;;;;;;;;;;;;;;4975993;28;19926;-89
2023/07/23 08:36:48;;;;;;;;;;;;;;;;;;4985115;28;19918;-90
2023/07/23 08:39:16;;;;;;;;;;;;;;;;;;5003117;28;19910;-87
2023/07/23 08:41:42;;;;;;;;;;;;;;;;;;4986615;28;19965;-86
2023/07/23 08:44:10;;;;;;;;;;;;;;;;;;5033107;28;19918;-89
2023/07/23 08:46:38;;;;;;;;;;;;;;;;;;5016728;28;19925;-90
2023/07/23 08:49:09;;;;;;;;;;;;;;;;;;5010477;28;19982;-90
2023/07/23 08:51:36;;;;;;;;;;;;;;;;;;5006369;28;19968;-87
2023/07/23 08:54:01;;;;;;;;;;;;;;;;;;4997915;28;19902;-87
2023/07/23 08:56:44;;;;;;;;;;;;;;;;;;5006908;28;19924;-89
2023/07/23 08:59:11;;;;;;;;;;;;;;;;;;4998624;28;19917;-87
2023/07/23 09:01:36;;;;;;;;;;;;;;;;;;5003323;28;19926;-87
2023/07/23 09:04:03;;;;;;;;;;;;;;;;;;5005797;28;19934;-88
2023/07/23 09:06:29;;;;;;;;;;;;;;;;;;4984004;28;19941;-88
2023/07/23 09:09:03;;;;;;;;;;;;;;;;;;5027935;23;19929;-75
2023/07/23 09:11:28;;;;;;;;;;;;;;;;;;5024615;28;19967;-76
2023/07/23 09:13:54;;;;;;;;;;;;;;;;;;5020960;28;19935;-74
2023/07/23 09:16:19;;;;;;;;;;;;;;;;;;5008464;28;19925;-77
2023/07/23 09:18:44;;;;;;;;;;;;;;;;;;5008217;28;19925;-75
2023/07/23 09:21:10;;;;;;;;;;;;;;;;;;5008554;28;19928;-75
2023/07/23 09:23:35;;;;;;;;;;;;;;;;;;5008475;28;19921;-76
2023/07/23 09:26:00;;;;;;;;;;;;;;;;;;5021639;28;19919;-74
2023/07/23 09:28:26;;;;;;;;;;;;;;;;;;5004192;28;19921;-79
2023/07/23 09:30:51;;;;;;;;;;;;;;;;;;5018951;28;20392;-75
2023/07/23 09:33:16;;;;;;;;;;;;;;;;;;5020686;28;19928;-73
2023/07/23 09:35:42;;;;;;;;;;;;;;;;;;5007402;28;19921;-74
2023/07/23 09:38:09;;;;;;;;;;;;;;;;;;5021809;28;20390;-71
2023/07/23 09:40:35;;;;;;;;;;;;;;;;;;5023758;28;19921;-75
2023/07/23 09:43:00;;;;;;;;;;;;;;;;;;5009705;28;19925;-74
2023/07/23 09:45:28;;;;;;;;;;;;;;;;;;5021761;28;19917;-72
2023/07/23 09:47:54;;;;;;;;;;;;;;;;;;5023304;28;19988;-70
2023/07/23 09:50:19;;;;;;;;;;;;;;;;;;5023588;28;20490;-73
2023/07/23 09:52:50;;;;;;;;;;;;;;;;;;5006928;28;19927;-76
2023/07/23 09:55:16;;;;;;;;;;;;;;;;;;5027844;28;20031;-74
2023/07/23 09:57:41;;;;;;;;;;;;;;;;;;5043493;28;19917;-72
2023/07/23 10:00:06;;;;;;;;;;;;;;;;;;5025537;28;19944;-74
2023/07/23 10:02:32;;;;;;;;;;;;;;;;;;5028052;28;19932;-75
2023/07/23 10:04:57;;;;;;;;;;;;;;;;;;5026954;28;19925;-73
2023/07/23 10:07:23;;;;;;;;;;;;;;;;;;5044161;28;19917;-76
2023/07/23 10:09:51;;;;;;;;;;;;;;;;;;5037998;28;19925;-71
2023/07/23 10:12:17;;;;;;;;;;;;;;;;;;5039464;28;19917;-73
2023/07/23 10:14:42;;;;;;;;;;;;;;;;;;5007273;28;19972;-75
2023/07/23 10:17:08;;;;;;;;;;;;;;;;;;5009183;28;19991;-74
2023/07/23 10:19:33;;;;;;;;;;;;;;;;;;5008577;28;20595;-73
2023/07/23 10:21:59;;;;;;;;;;;;;;;;;;5025721;28;19963;-74
2023/07/23 10:24:24;;;;;;;;;;;;;;;;;;5009386;28;21732;-73
2023/07/23 10:26:49;;;;;;;;;;;;;;;;;;5007339;28;19925;-74
2023/07/23 10:29:15;;;;;;;;;;;;;;;;;;5012189;28;19928;-74
2023/07/23 10:31:40;;;;;;;;;;;;;;;;;;5048250;28;19921;-74
2023/07/23 10:34:06;;;;;;;;;;;;;;;;;;5038339;28;19928;-75
2023/07/23 10:36:32;;;;;;;;;;;;;;;;;;5030190;28;20550;-74
2023/07/23 10:38:57;;;;;;;;;;;;;;;;;;5016900;28;19921;-73
2023/07/23 10:41:23;;;;;;;;;;;;;;;;;;5025620;28;19921;-73
2023/07/23 10:43:48;;;;;;;;;;;;;;;;;;5007592;28;19993;-76
2023/07/23 10:46:14;;;;;;;;;;;;;;;;;;5007468;28;20004;-72
2023/07/23 10:48:39;;;;;;;;;;;;;;;;;;5039327;28;20586;-74
2023/07/23 10:51:05;;;;;;;;;;;;;;;;;;5021249;28;19921;-73
2023/07/23 10:53:30;;;;;;;;;;;;;;;;;;5008441;28;19948;-75
2023/07/23 10:55:55;;;;;;;;;;;;;;;;;;5008947;28;19929;-75
2023/07/23 10:58:21;;;;;;;;;;;;;;;;;;4995503;28;19921;-74
2023/07/23 11:00:49;;;;;;;;;;;;;;;;;;5039220;28;19918;-70
2023/07/23 11:03:18;;;;;;;;;;;;;;;;;;5008819;28;19921;-71
2023/07/23 11:05:45;;;;;;;;;;;;;;;;;;5037805;28;19933;-73
2023/07/23 11:08:11;;;;;;;;;;;;;;;;;;5009047;28;20010;-72
2023/07/23 11:10:36;;;;;;;;;;;;;;;;;;5007591;28;19962;-72
2023/07/23 11:13:01;;;;;;;;;;;;;;;;;;5005493;28;20336;-70
2023/07/23 11:15:27;;;;;;;;;;;;;;;;;;5024172;28;20149;-74
2023/07/23 11:17:55;;;;;;;;;;;;;;;;;;5041448;28;19921;-71
2023/07/23 11:20:20;;;;;;;;;;;;;;;;;;5038880;28;20004;-72
2023/07/23 11:22:46;;;;;;;;;;;;;;;;;;5006956;28;19921;-72
2023/07/23 11:25:12;;;;;;;;;;;;;;;;;;5022071;28;21072;-73
2023/07/23 11:27:37;;;;;;;;;;;;;;;;;;5039227;28;19995;-72
2023/07/23 11:30:02;;;;;;;;;;;;;;;;;;5040995;28;19917;-70
2023/07/23 11:32:28;;;;;;;;;;;;;;;;;;5007196;28;19940;-71
2023/07/23 11:34:53;;;;;;;;;;;;;;;;;;5026405;28;19955;-69
2023/07/23 11:37:18;;;;;;;;;;;;;;;;;;5025235;28;19921;-69
2023/07/23 11:39:47;;;;;;;;;;;;;;;;;;5009081;28;19940;-72
2023/07/23 11:42:12;;;;;;;;;;;;;;;;;;5024233;28;19936;-72
2023/07/23 11:44:37;;;;;;;;;;;;;;;;;;5008697;28;20332;-73
2023/07/23 11:47:03;;;;;;;;;;;;;;;;;;5026063;28;19936;-77
2023/07/23 11:49:28;;;;;;;;;;;;;;;;;;5024564;28;19921;-73
2023/07/23 11:51:53;;;;;;;;;;;;;;;;;;5025202;28;19917;-72
2023/07/23 11:54:19;;;;;;;;;;;;;;;;;;5041530;28;19921;-71
2023/07/23 11:56:47;;;;;;;;;;;;;;;;;;5007905;28;20055;-72
2023/07/23 11:59:16;;;;;;;;;;;;;;;;;;5040897;28;19921;-68
2023/07/23 12:01:41;;;;;;;;;;;;;;;;;;5027279;28;19921;-71
2023/07/23 12:04:07;;;;;;;;;;;;;;;;;;5040746;28;19964;-72
2023/07/23 12:06:32;;;;;;;;;;;;;;;;;;5023018;28;20011;-69
2023/07/23 12:08:58;;;;;;;;;;;;;;;;;;5024130;28;19956;-70
2023/07/23 12:11:23;;;;;;;;;;;;;;;;;;5039685;28;20137;-72
2023/07/23 12:13:48;;;;;;;;;;;;;;;;;;5041320;28;19916;-69
2023/07/23 12:16:16;;;;;;;;;;;;;;;;;;5039096;28;20028;-71
2023/07/23 12:18:42;;;;;;;;;;;;;;;;;;5023907;28;19936;-71
2023/07/23 12:21:09;;;;;;;;;;;;;;;;;;5023656;28;19988;-71
2023/07/23 12:23:35;;;;;;;;;;;;;;;;;;5023792;28;20015;-71
2023/07/23 12:26:00;;;;;;;;;;;;;;;;;;5041310;28;19929;-68
2023/07/23 12:28:28;;;;;;;;;;;;;;;;;;5024304;28;19983;-70
2023/07/23 12:30:56;;;;;;;;;;;;;;;;;;5022802;28;19927;-71
2023/07/23 12:33:24;;;;;;;;;;;;;;;;;;5005727;28;20814;-68
2023/07/23 12:35:50;;;;;;;;;;;;;;;;;;5023571;28;19917;-70
2023/07/23 12:38:18;;;;;;;;;;;;;;;;;;5023611;28;19936;-67
2023/07/23 12:40:46;;;;;;;;;;;;;;;;;;5039068;28;19920;-70
2023/07/23 12:43:11;;;;;;;;;;;;;;;;;;5024461;28;19936;-69
2023/07/23 12:45:39;;;;;;;;;;;;;;;;;;5021800;28;20282;-69
2023/07/23 12:48:04;;;;;;;;;;;;;;;;;;4990896;28;19971;-69
2023/07/23 12:50:29;;;;;;;;;;;;;;;;;;5038813;28;20425;-69
2023/07/23 12:52:55;;;;;;;;;;;;;;;;;;5021322;28;19939;-68
2023/07/23 12:55:20;;;;;;;;;;;;;;;;;;5039807;28;19917;-69
2023/07/23 12:57:45;;;;;;;;;;;;;;;;;;5039713;28;19920;-68
2023/07/23 13:00:11;;;;;;;;;;;;;;;;;;5020940;28;19943;-69
2023/07/23 13:02:36;;;;;;;;;;;;;;;;;;5024924;28;19944;-69
2023/07/23 13:05:03;;;;;;;;;;;;;;;;;;5023285;28;19916;-67
2023/07/23 13:07:31;;;;;;;;;;;;;;;;;;5024763;28;19956;-69
2023/07/23 13:09:57;;;;;;;;;;;;;;;;;;5020003;28;20108;-67
2023/07/23 13:12:22;;;;;;;;;;;;;;;;;;5021583;28;20695;-70
2023/07/23 13:14:49;;;;;;;;;;;;;;;;;;5009174;28;20038;-69
2023/07/23 13:17:17;;;;;;;;;;;;;;;;;;5009714;28;21026;-70
2023/07/23 13:19:45;;;;;;;;;;;;;;;;;;5008338;28;19921;-69
2023/07/23 13:22:10;;;;;;;;;;;;;;;;;;5009798;28;19928;-68
2023/07/23 13:24:36;;;;;;;;;;;;;;;;;;5008449;28;19922;-68
2023/07/23 13:27:04;;;;;;;;;;;;;;;;;;5007630;28;20482;-68
2023/07/23 13:29:29;;;;;;;;;;;;;;;;;;5023530;28;19939;-68
2023/07/23 13:31:57;;;;;;;;;;;;;;;;;;5021497;28;19928;-71
2023/07/23 13:34:22;;;;;;;;;;;;;;;;;;5022586;28;19917;-69
2023/07/23 13:36:48;;;;;;;;;;;;;;;;;;5023070;28;20448;-70
2023/07/23 13:39:13;;;;;;;;;;;;;;;;;;5023036;28;19922;-71
2023/07/23 13:41:39;;;;;;;;;;;;;;;;;;5023782;28;19921;-72
2023/07/23 13:44:07;;;;;;;;;;;;;;;;;;5024106;28;20005;-70
2023/07/23 13:46:32;;;;;;;;;;;;;;;;;;5039961;28;19928;-69
2023/07/23 13:48:58;;;;;;;;;;;;;;;;;;5008611;28;19921;-69
2023/07/23 13:51:23;;;;;;;;;;;;;;;;;;5023072;28;19956;-68
2023/07/23 13:53:48;;;;;;;;;;;;;;;;;;5010984;28;19921;-70
2023/07/23 13:56:14;;;;;;;;;;;;;;;;;;5038933;28;20304;-79
2023/07/23 13:58:39;;;;;;;;;;;;;;;;;;5009942;28;19932;-70
2023/07/23 14:01:05;;;;;;;;;;;;;;;;;;5038568;28;19922;-73
2023/07/23 14:03:33;;;;;;;;;;;;;;;;;;5007989;28;20004;-69
2023/07/23 14:06:00;;;;;;;;;;;;;;;;;;5021247;28;19917;-69
2023/07/23 14:08:26;;;;;;;;;;;;;;;;;;5005987;28;19932;-68
2023/07/23 14:10:54;;;;;;;;;;;;;;;;;;5007840;28;19937;-70
2023/07/23 14:13:21;;;;;;;;;;;;;;;;;;5013610;28;19935;-74
2023/07/23 14:15:46;;;;;;;;;;;;;;;;;;5043273;28;19921;-74
2023/07/23 14:18:12;;;;;;;;;;;;;;;;;;5040260;28;19923;-69
2023/07/23 14:20:37;;;;;;;;;;;;;;;;;;5020208;28;19975;-74
2023/07/23 14:23:02;;;;;;;;;;;;;;;;;;5021243;28;19948;-78
2023/07/23 14:25:28;;;;;;;;;;;;;;;;;;5010596;28;19920;-71
2023/07/23 14:27:53;;;;;;;;;;;;;;;;;;5028835;28;19925;-81
2023/07/23 14:30:18;;;;;;;;;;;;;;;;;;5026875;28;19921;-68
2023/07/23 14:32:44;;;;;;;;;;;;;;;;;;5044943;28;19921;-71
2023/07/23 14:35:09;;;;;;;;;;;;;;;;;;5026716;28;19971;-74
2023/07/23 14:37:35;;;;;;;;;;;;;;;;;;5011539;28;19994;-69
2023/07/23 14:40:00;;;;;;;;;;;;;;;;;;5028030;28;19990;-76
2023/07/23 14:42:28;;;;;;;;;;;;;;;;;;5025395;28;19925;-71
2023/07/23 14:44:53;;;;;;;;;;;;;;;;;;5029437;28;19921;-70
2023/07/23 14:47:21;;;;;;;;;;;;;;;;;;5042421;28;19947;-72
2023/07/23 14:49:46;;;;;;;;;;;;;;;;;;5027702;28;19921;-76
2023/07/23 14:52:12;;;;;;;;;;;;;;;;;;5010978;28;19927;-69
2023/07/23 14:54:38;;;;;;;;;;;;;;;;;;5041783;28;20248;-71
2023/07/23 14:57:06;;;;;;;;;;;;;;;;;;5025365;28;19920;-72
2023/07/23 14:59:32;;;;;;;;;;;;;;;;;;5013559;28;20039;-75
2023/07/23 15:01:57;;;;;;;;;;;;;;;;;;5043363;28;20946;-73
2023/07/23 15:04:23;;;;;;;;;;;;;;;;;;5008599;28;19917;-73
2023/07/23 15:06:51;;;;;;;;;;;;;;;;;;5024950;28;20845;-71
2023/07/23 15:09:17;;;;;;;;;;;;;;;;;;5027829;28;19970;-69
2023/07/23 15:11:42;;;;;;;;;;;;;;;;;;5024669;28;20571;-72
2023/07/23 15:14:08;;;;;;;;;;;;;;;;;;5026494;28;20491;-74
2023/07/23 15:16:33;;;;;;;;;;;;;;;;;;5027724;28;20644;-71
2023/07/23 15:18:58;;;;;;;;;;;;;;;;;;5042277;28;19921;-72
2023/07/23 15:21:24;;;;;;;;;;;;;;;;;;5041648;28;19928;-77
2023/07/23 15:23:49;;;;;;;;;;;;;;;;;;5043005;28;19932;-69
2023/07/23 15:26:17;;;;;;;;;;;;;;;;;;5008601;28;19924;-72
2023/07/23 15:28:45;;;;;;;;;;;;;;;;;;5044310;28;19925;-70
2023/07/23 15:31:11;;;;;;;;;;;;;;;;;;5044095;28;21217;-71
2023/07/23 15:33:39;;;;;;;;;;;;;;;;;;5045021;28;19983;-76
2023/07/23 15:36:09;;;;;;;;;;;;;;;;;;5024383;28;20308;-72
2023/07/23 15:38:37;;;;;;;;;;;;;;;;;;5044469;28;19939;-71
2023/07/23 15:41:02;;;;;;;;;;;;;;;;;;5011024;28;20451;-71
2023/07/23 15:43:28;;;;;;;;;;;;;;;;;;5028514;28;20288;-75
2023/07/23 15:45:56;;;;;;;;;;;;;;;;;;5043912;28;20705;-73
2023/07/23 15:48:24;;;;;;;;;;;;;;;;;;5043927;28;19920;-70
2023/07/23 15:50:52;;;;;;;;;;;;;;;;;;5041913;28;19917;-73
2023/07/23 15:53:19;;;;;;;;;;;;;;;;;;5024901;28;19921;-71
2023/07/23 15:55:44;;;;;;;;;;;;;;;;;;5024742;28;19925;-71
2023/07/23 15:58:10;;;;;;;;;;;;;;;;;;5009503;28;19916;-69
2023/07/23 16:00:35;;;;;;;;;;;;;;;;;;5026701;28;19924;-72
2023/07/23 16:03:01;;;;;;;;;;;;;;;;;;5025596;28;19967;-71
2023/07/23 16:05:27;;;;;;;;;;;;;;;;;;5026439;28;19931;-76
2023/07/23 16:07:52;;;;;;;;;;;;;;;;;;5028170;28;20857;-70
2023/07/23 16:10:17;;;;;;;;;;;;;;;;;;5024102;28;19921;-74
2023/07/23 16:12:43;;;;;;;;;;;;;;;;;;5025887;28;20710;-71
2023/07/23 16:15:08;;;;;;;;;;;;;;;;;;5026759;28;21808;-70
2023/07/23 16:17:33;;;;;;;;;;;;;;;;;;5010519;28;19964;-73
2023/07/23 16:20:01;;;;;;;;;;;;;;;;;;5026526;28;20397;-72
2023/07/23 16:22:30;;;;;;;;;;;;;;;;;;5041070;28;19923;-79
2023/07/23 16:24:58;;;;;;;;;;;;;;;;;;5040723;28;19939;-73
2023/07/23 16:27:25;;;;;;;;;;;;;;;;;;5023582;28;20403;-72
2023/07/23 16:29:50;;;;;;;;;;;;;;;;;;5023691;28;20399;-71
2023/07/23 16:32:15;;;;;;;;;;;;;;;;;;5025695;28;19921;-72
2023/07/23 16:34:43;;;;;;;;;;;;;;;;;;5041765;28;19916;-71
2023/07/23 16:37:09;;;;;;;;;;;;;;;;;;5040491;28;20388;-74
2023/07/23 16:39:34;;;;;;;;;;;;;;;;;;5026341;28;19928;-73
2023/07/23 16:42:00;;;;;;;;;;;;;;;;;;5041388;28;20554;-73
2023/07/23 16:44:26;;;;;;;;;;;;;;;;;;5024596;28;19925;-74
2023/07/23 16:46:54;;;;;;;;;;;;;;;;;;5041493;28;19971;-71
2023/07/23 16:49:21;;;;;;;;;;;;;;;;;;5024679;28;19917;-73